Time;durP1;ratioP1;P1;durP2;ratioP2;P2;SDS_P1;SDS_P2;PMS_P1;PMS_P2;Temp;Humidity;BMP_temperature;BMP_pressure;BME280_temperature;BME280_humidity;BME280_pressure;Samples;Min_cycle;Max_cycle;Signal;HPM_P1;HPM_P2
2023/09/12 00:02:15;;;;;;;14.90;13.20;;;;;;;15.71;100.00;97693.04;107125;1277;22528;-81
2023/09/12 00:04:43;;;;;;;15.10;13.70;;;;;;;15.71;100.00;97690.88;107090;1256;22540;-81
2023/09/12 00:07:11;;;;;;;14.90;13.50;;;;;;;15.69;100.00;97693.77;107079;1276;22536;-81
2023/09/12 00:09:39;;;;;;;15.10;13.70;;;;;;;15.68;100.00;97695.75;107146;1277;25386;-81
2023/09/12 00:12:07;;;;;;;16.40;14.70;;;;;;;15.66;100.00;97697.28;107152;1277;23223;-82
2023/09/12 00:14:36;;;;;;;16.00;14.50;;;;;;;15.69;100.00;97692.90;107161;1277;22520;-81
2023/09/12 00:17:04;;;;;;;14.70;13.20;;;;;;;15.72;100.00;97689.29;107087;1276;22534;-81
2023/09/12 00:19:32;;;;;;;15.20;13.60;;;;;;;15.74;100.00;97684.30;107107;1276;22636;-81
2023/09/12 00:22:00;;;;;;;16.40;14.60;;;;;;;15.77;100.00;97684.64;107003;1276;22587;-81
2023/09/12 00:24:28;;;;;;;15.30;13.80;;;;;;;15.76;100.00;97687.27;107083;1276;23283;-81
2023/09/12 00:26:56;;;;;;;15.10;13.50;;;;;;;15.75;100.00;97690.47;106914;1276;24344;-81
2023/09/12 00:29:24;;;;;;;14.90;13.60;;;;;;;15.76;100.00;97685.48;106988;1276;236839;-81
2023/09/12 00:31:52;;;;;;;14.80;13.40;;;;;;;15.76;100.00;97687.70;107180;1276;22528;-81
2023/09/12 00:34:20;;;;;;;17.50;15.60;;;;;;;15.75;100.00;97685.33;107138;1276;25473;-81
2023/09/12 00:36:48;;;;;;;14.90;13.60;;;;;;;15.76;100.00;97690.19;106873;1276;25398;-81
2023/09/12 00:39:16;;;;;;;16.30;13.80;;;;;;;15.74;100.00;97689.90;107160;1277;22531;-81
2023/09/12 00:41:44;;;;;;;17.30;13.40;;;;;;;15.73;100.00;97685.38;107124;1277;22604;-81
2023/09/12 00:44:12;;;;;;;15.50;13.90;;;;;;;15.77;100.00;97689.20;107086;1277;25466;-81
2023/09/12 00:46:41;;;;;;;16.80;15.10;;;;;;;15.75;100.00;97686.77;107202;1264;22527;-81
2023/09/12 00:49:10;;;;;;;15.90;14.30;;;;;;;15.79;100.00;97685.46;107143;1277;22520;-81
2023/09/12 00:51:39;;;;;;;14.70;13.50;;;;;;;15.77;100.00;97687.19;107174;1277;24040;-81
2023/09/12 00:54:07;;;;;;;17.10;13.40;;;;;;;15.72;100.00;97689.42;107142;1277;22523;-81
2023/09/12 00:56:36;;;;;;;14.40;13.20;;;;;;;15.70;100.00;97684.33;106999;1277;22538;-81
2023/09/12 00:59:05;;;;;;;16.60;15.10;;;;;;;15.65;100.00;97684.00;107112;1277;25328;-81
2023/09/12 01:01:34;;;;;;;16.60;15.00;;;;;;;15.65;100.00;97683.68;107028;1277;25511;-81
2023/09/12 01:04:03;;;;;;;16.60;14.80;;;;;;;15.67;100.00;97681.66;107009;1277;22588;-81
2023/09/12 01:06:33;;;;;;;17.00;15.00;;;;;;;15.70;100.00;97682.70;106784;1277;22737;-81
2023/09/12 01:09:01;;;;;;;16.80;15.20;;;;;;;15.70;100.00;97677.65;107103;1276;25481;-81
2023/09/12 01:11:31;;;;;;;16.10;14.60;;;;;;;15.67;100.00;97680.94;106916;1276;22646;-81
2023/09/12 01:13:59;;;;;;;16.30;14.60;;;;;;;15.68;100.00;97678.11;107152;1276;22592;-81
2023/09/12 01:16:27;;;;;;;16.40;14.70;;;;;;;15.67;100.00;97676.17;107207;1277;22571;-80
2023/09/12 01:18:55;;;;;;;19.30;14.40;;;;;;;15.65;100.00;97678.63;107222;1276;22750;-80
2023/09/12 01:21:36;;;;;;;15.60;13.80;;;;;;;15.66;100.00;97674.02;106872;1259;22998;-80
2023/09/12 01:24:34;;;;;;;17.10;15.50;;;;;;;15.65;100.00;97677.83;107010;1276;22538;-81
2023/09/12 01:27:18;;;;;;;16.10;14.70;;;;;;;15.62;100.00;97678.31;106933;1276;22644;-82
2023/09/12 01:29:51;;;;;;;15.90;14.50;;;;;;;15.63;100.00;97683.69;107277;1276;24210;-82
2023/09/12 01:32:20;;;;;;;15.70;14.10;;;;;;;15.62;100.00;97681.09;107346;1276;22559;-81
2023/09/12 01:34:48;;;;;;;16.60;13.80;;;;;;;15.61;100.00;97679.35;107170;1276;25501;-80
2023/09/12 01:37:16;;;;;;;16.70;14.90;;;;;;;15.60;100.00;97675.43;107172;1276;23911;-80
2023/09/12 01:39:44;;;;;;;16.30;14.70;;;;;;;15.60;100.00;97676.92;107146;1276;22537;-80
2023/09/12 01:42:16;;;;;;;17.10;15.40;;;;;;;15.60;100.00;97679.80;107110;1276;22784;-80
2023/09/12 01:44:45;;;;;;;16.90;15.40;;;;;;;15.57;100.00;97681.53;107223;1276;25602;-80
2023/09/12 01:47:16;;;;;;;16.60;15.00;;;;;;;15.53;100.00;97685.45;107098;1276;23255;-81
2023/09/12 01:49:47;;;;;;;16.80;15.20;;;;;;;15.55;100.00;97687.49;107197;1276;24242;-81
2023/09/12 01:52:16;;;;;;;16.00;14.40;;;;;;;15.57;100.00;97687.52;107138;1276;25268;-81
2023/09/12 01:54:44;;;;;;;15.70;14.30;;;;;;;15.58;100.00;97682.02;106946;1276;25689;-81
2023/09/12 01:57:14;;;;;;;17.10;15.30;;;;;;;15.55;100.00;97686.89;107179;1276;25271;-81
2023/09/12 01:59:44;;;;;;;16.80;14.90;;;;;;;15.52;100.00;97682.13;106984;1276;22550;-81
2023/09/12 02:02:12;;;;;;;15.90;14.40;;;;;;;15.52;100.00;97678.58;107163;1276;25511;-81
2023/09/12 02:04:40;;;;;;;16.30;14.70;;;;;;;15.53;100.00;97676.81;107156;1276;24296;-81
2023/09/12 02:07:08;;;;;;;16.30;14.80;;;;;;;15.53;100.00;97681.70;107113;1276;22975;-81
2023/09/12 02:09:37;;;;;;;16.70;15.10;;;;;;;15.50;100.00;97681.23;106895;1276;23874;-81
2023/09/12 02:12:05;;;;;;;16.70;15.00;;;;;;;15.49;100.00;97682.17;106871;1276;22659;-81
2023/09/12 02:14:34;;;;;;;17.30;15.60;;;;;;;15.48;100.00;97681.06;107186;1276;22539;-81
2023/09/12 02:17:02;;;;;;;17.00;15.40;;;;;;;15.47;100.00;97674.67;107001;1276;23138;-81
2023/09/12 02:19:30;;;;;;;16.90;15.30;;;;;;;15.46;100.00;97674.65;107203;1276;22618;-81
2023/09/12 02:21:59;;;;;;;17.20;15.60;;;;;;;15.45;100.00;97677.51;107880;1276;22593;-81
2023/09/12 02:24:27;;;;;;;17.40;15.80;;;;;;;15.40;100.00;97678.64;108559;1276;23178;-81
2023/09/12 02:26:55;;;;;;;16.70;15.10;;;;;;;15.39;100.00;97674.50;108712;1276;22537;-81
2023/09/12 02:33:26;;;;;;;17.30;15.50;;;;;;;15.43;100.00;97676.82;107084;1276;22524;-81
2023/09/12 02:35:55;;;;;;;16.40;14.70;;;;;;;15.42;100.00;97678.63;107097;1276;24060;-81
2023/09/12 02:38:23;;;;;;;18.80;15.60;;;;;;;15.40;100.00;97678.58;106931;1276;22628;-81
2023/09/12 02:41:31;;;;;;;18.00;15.80;;;;;;;15.39;100.00;97683.27;106881;1276;22629;-81
2023/09/12 02:44:39;;;;;;;17.50;15.80;;;;;;;15.37;100.00;97683.58;107115;1276;25339;-82
2023/09/12 02:47:07;;;;;;;18.40;16.50;;;;;;;15.42;100.00;97684.15;107289;1276;22540;-81
2023/09/12 02:49:35;;;;;;;15.30;13.80;;;;;;;15.44;100.00;97686.94;106910;1276;22581;-81
2023/09/12 02:52:04;;;;;;;17.40;15.90;;;;;;;15.35;100.00;97687.23;107111;1276;22650;-82
2023/09/12 02:54:32;;;;;;;18.50;16.90;;;;;;;15.30;100.00;97687.37;107121;1276;22619;-82
2023/09/12 02:57:00;;;;;;;20.60;16.30;;;;;;;15.29;100.00;97684.29;107137;1276;25405;-82
2023/09/12 02:59:29;;;;;;;17.30;15.80;;;;;;;15.30;100.00;97684.20;106906;1276;22589;-82
2023/09/12 03:01:58;;;;;;;17.40;15.70;;;;;;;15.32;100.00;97682.17;107110;1276;25440;-82
2023/09/12 03:04:28;;;;;;;17.60;16.00;;;;;;;15.27;100.00;97682.23;107234;1276;24435;-81
2023/09/12 03:06:56;;;;;;;18.80;16.20;;;;;;;15.19;100.00;97684.41;106913;1276;24769;-81
2023/09/12 03:09:25;;;;;;;17.20;15.70;;;;;;;15.14;100.00;97686.34;107143;1276;24372;-82
2023/09/12 03:11:53;;;;;;;18.90;16.30;;;;;;;15.07;100.00;97686.69;107045;1276;22569;-83
2023/09/12 03:14:21;;;;;;;20.10;16.90;;;;;;;15.06;100.00;97691.55;107108;1276;23915;-81
2023/09/12 03:16:49;;;;;;;18.80;16.90;;;;;;;15.05;100.00;97693.30;106897;1276;25718;-81
2023/09/12 03:19:17;;;;;;;18.80;16.60;;;;;;;15.04;100.00;97689.30;107115;1276;25396;-81
2023/09/12 03:21:45;;;;;;;20.00;17.90;;;;;;;15.05;100.00;97689.73;107087;1276;22531;-81
2023/09/12 03:24:13;;;;;;;20.40;18.50;;;;;;;15.06;100.00;97698.77;107157;1276;22598;-82
2023/09/12 03:26:41;;;;;;;18.50;16.80;;;;;;;15.05;100.00;97697.27;106986;1276;24824;-81
2023/09/12 03:29:09;;;;;;;18.50;16.80;;;;;;;15.02;100.00;97695.90;107161;1276;22587;-81
2023/09/12 03:31:37;;;;;;;19.60;17.80;;;;;;;14.98;100.00;97695.77;107207;1276;24372;-82
2023/09/12 03:34:05;;;;;;;19.40;17.50;;;;;;;14.97;100.00;97693.67;107146;1276;23170;-81
2023/09/12 03:36:33;;;;;;;19.70;17.80;;;;;;;14.96;100.00;97691.83;107156;1276;25409;-81
2023/09/12 03:39:03;;;;;;;20.50;18.70;;;;;;;14.92;100.00;97695.70;106962;1276;25457;-81
2023/09/12 03:41:31;;;;;;;39.60;36.00;;;;;;;14.94;100.00;97697.33;106985;1276;25296;-81
2023/09/12 03:43:59;;;;;;;19.80;17.80;;;;;;;14.93;100.00;97700.54;107192;1276;26788;-81
2023/09/12 03:46:28;;;;;;;21.70;19.50;;;;;;;14.94;100.00;97699.73;107138;1276;24314;-81
2023/09/12 03:48:56;;;;;;;17.80;16.30;;;;;;;14.99;100.00;97695.63;106982;1276;25484;-81
2023/09/12 03:51:24;;;;;;;18.10;16.50;;;;;;;15.00;100.00;97693.83;107153;1276;24384;-81
2023/09/12 03:53:52;;;;;;;20.40;16.70;;;;;;;14.95;100.00;97692.19;107123;1276;25982;-81
2023/09/12 03:56:21;;;;;;;19.90;18.10;;;;;;;14.84;100.00;97692.70;106805;1276;22531;-82
2023/09/12 03:58:49;;;;;;;20.80;18.80;;;;;;;14.79;100.00;97692.83;107134;1276;22579;-82
2023/09/12 04:01:17;;;;;;;21.50;19.40;;;;;;;14.84;100.00;97692.45;107165;1274;22559;-82
2023/09/12 04:03:47;;;;;;;18.80;17.10;;;;;;;14.89;100.00;97693.14;107161;1276;22598;-82
2023/09/12 04:06:16;;;;;;;20.00;18.20;;;;;;;14.87;100.00;97690.66;107114;1276;22575;-81
2023/09/12 04:08:45;;;;;;;19.10;17.40;;;;;;;14.79;100.00;97690.27;107153;1276;22569;-83
2023/09/12 04:11:13;;;;;;;20.50;18.70;;;;;;;14.73;100.00;97691.60;107169;1276;22530;-82
2023/09/12 04:13:41;;;;;;;19.70;18.10;;;;;;;14.71;100.00;97692.92;107113;1276;22616;-82
2023/09/12 04:16:10;;;;;;;20.00;18.00;;;;;;;14.68;100.00;97692.42;107105;1276;22536;-82
2023/09/12 04:18:38;;;;;;;19.00;17.20;;;;;;;14.66;100.00;97694.50;107203;1276;24075;-82
2023/09/12 04:21:07;;;;;;;18.90;17.10;;;;;;;14.64;100.00;97690.61;107094;1276;25319;-83
2023/09/12 04:23:35;;;;;;;18.80;17.00;;;;;;;14.61;100.00;97695.64;107089;1276;22772;-82
2023/09/12 04:26:03;;;;;;;20.50;18.60;;;;;;;14.56;100.00;97696.76;107184;1276;22552;-83
2023/09/12 04:28:32;;;;;;;18.80;17.00;;;;;;;14.54;100.00;97692.66;107076;1276;22765;-83
2023/09/12 04:31:04;;;;;;;20.20;18.20;;;;;;;14.53;100.00;97694.80;107021;1276;22647;-81
2023/09/12 04:33:32;;;;;;;19.80;18.00;;;;;;;14.49;100.00;97694.25;107147;1276;25391;-83
2023/09/12 04:36:00;;;;;;;20.20;18.40;;;;;;;14.52;100.00;97692.51;107142;1276;24754;-82
2023/09/12 04:38:29;;;;;;;21.10;18.90;;;;;;;14.52;100.00;97696.15;106983;1276;22599;-81
2023/09/12 04:41:02;;;;;;;21.50;19.30;;;;;;;14.59;100.00;97699.42;107159;1276;25278;-82
2023/09/12 04:43:58;;;;;;;22.10;19.80;;;;;;;14.68;100.00;97700.85;107164;1276;22531;-82
2023/09/12 04:46:26;;;;;;;20.20;18.40;;;;;;;14.74;100.00;97704.42;107169;1276;22587;-82
2023/09/12 04:48:54;;;;;;;23.70;19.60;;;;;;;14.76;100.00;97704.95;106882;1276;24336;-82
2023/09/12 04:51:22;;;;;;;20.40;18.50;;;;;;;14.82;100.00;97702.21;107144;1276;22528;-82
2023/09/12 04:53:51;;;;;;;21.90;19.50;;;;;;;14.88;100.00;97700.67;107182;1276;23380;-82
2023/09/12 04:56:24;;;;;;;21.70;19.80;;;;;;;14.95;100.00;97705.21;107171;1269;22538;-82
2023/09/12 04:58:53;;;;;;;21.00;19.00;;;;;;;15.05;100.00;97702.83;107158;1276;22543;-83
2023/09/12 05:01:21;;;;;;;20.00;17.90;;;;;;;15.10;100.00;97704.10;106993;1276;24247;-82
2023/09/12 05:03:49;;;;;;;21.70;19.70;;;;;;;15.14;100.00;97706.33;106986;1276;25419;-81
2023/09/12 05:06:17;;;;;;;21.40;19.60;;;;;;;15.16;100.00;97708.06;107117;1276;25548;-81
2023/09/12 05:08:45;;;;;;;20.20;18.40;;;;;;;15.19;100.00;97711.81;107169;1276;23975;-82
2023/09/12 05:11:13;;;;;;;22.10;18.80;;;;;;;15.25;100.00;97710.23;107002;1276;22843;-82
2023/09/12 05:13:41;;;;;;;21.60;19.60;;;;;;;15.29;100.00;97715.38;106996;1276;22492;-81
2023/09/12 05:16:10;;;;;;;21.30;19.20;;;;;;;15.29;100.00;97715.58;106958;1276;23126;-81
2023/09/12 05:18:38;;;;;;;21.90;19.90;;;;;;;15.39;100.00;97713.83;107100;1276;25409;-82
2023/09/12 05:21:06;;;;;;;20.40;18.40;;;;;;;15.50;100.00;97713.52;107197;1276;22652;-82
2023/09/12 05:23:34;;;;;;;21.50;19.40;;;;;;;15.57;100.00;97712.17;107164;1276;24206;-82
2023/09/12 05:26:02;;;;;;;21.40;19.40;;;;;;;15.58;100.00;97717.20;106995;1276;22943;-82
2023/09/12 05:28:31;;;;;;;21.90;19.80;;;;;;;15.62;100.00;97717.10;106980;1276;22580;-82
2023/09/12 05:30:59;;;;;;;20.80;18.50;;;;;;;15.66;100.00;97717.61;106960;1266;22518;-82
2023/09/12 05:33:28;;;;;;;21.00;19.20;;;;;;;15.69;100.00;97720.23;107210;1276;22575;-82
2023/09/12 05:36:00;;;;;;;20.70;18.90;;;;;;;15.77;100.00;97722.13;107102;1276;22544;-82
2023/09/12 05:38:29;;;;;;;19.90;18.10;;;;;;;15.84;100.00;97725.08;107148;1276;22600;-82
2023/09/12 05:40:57;;;;;;;20.10;18.00;;;;;;;15.86;100.00;97724.63;106963;1276;25485;-81
2023/09/12 05:43:25;;;;;;;19.70;17.80;;;;;;;15.91;100.00;97717.38;106961;1276;25335;-81
2023/09/12 05:45:58;;;;;;;20.20;18.10;;;;;;;15.98;100.00;97713.92;106929;1276;25278;-82
2023/09/12 05:48:34;;;;;;;21.30;19.40;;;;;;;16.10;100.00;97717.95;106929;1276;22536;-82
2023/09/12 05:51:42;;;;;;;22.20;19.90;;;;;;;16.21;100.00;97716.44;106877;1276;23908;-82
2023/09/12 05:55:19;;;;;;;19.90;18.10;;;;;;;16.41;100.00;97719.62;107156;1276;25284;-82
2023/09/12 05:58:13;;;;;;;20.50;18.40;;;;;;;16.58;100.00;97713.63;107095;1276;24337;-82
2023/09/12 06:01:23;;;;;;;24.40;18.80;;;;;;;16.71;100.00;97712.67;106900;1276;24238;-82
2023/09/12 06:04:11;;;;;;;21.40;19.20;;;;;;;16.90;100.00;97711.78;107117;1276;22556;-82
2023/09/12 06:06:40;;;;;;;20.80;18.90;;;;;;;17.09;100.00;97712.41;107568;1276;22555;-83
2023/09/12 06:09:08;;;;;;;20.30;18.50;;;;;;;17.28;100.00;97715.03;108574;1276;22541;-81
2023/09/12 06:11:37;;;;;;;22.20;19.00;;;;;;;17.45;100.00;97713.86;108468;1276;23928;-81
2023/09/12 06:18:35;;;;;;;20.90;18.90;;;;;;;18.07;100.00;97722.56;107038;1276;22541;-81
2023/09/12 06:21:04;;;;;;;20.10;18.00;;;;;;;18.29;100.00;97725.74;107034;1276;22549;-82
2023/09/12 06:23:32;;;;;;;20.50;18.60;;;;;;;18.51;100.00;97726.25;107070;1269;22524;-82
2023/09/12 06:26:00;;;;;;;20.80;18.80;;;;;;;18.73;100.00;97726.59;107164;1276;22760;-82
2023/09/12 06:28:30;;;;;;;23.40;18.40;;;;;;;18.91;100.00;97724.52;106919;1276;22637;-82
2023/09/12 06:30:58;;;;;;;19.40;17.60;;;;;;;19.11;100.00;97725.14;107196;1276;22531;-82
2023/09/12 06:33:28;;;;;;;18.10;16.30;;;;;;;19.32;100.00;97721.59;107051;1276;25358;-81
2023/09/12 06:35:56;;;;;;;19.10;17.20;;;;;;;19.52;100.00;97724.09;107253;1276;24273;-82
2023/09/12 06:38:24;;;;;;;18.40;16.50;;;;;;;19.70;100.00;97725.23;107146;1276;24285;-82
2023/09/12 06:40:52;;;;;;;20.60;17.50;;;;;;;19.78;100.00;97726.70;107121;1276;22527;-82
2023/09/12 06:43:20;;;;;;;23.00;17.70;;;;;;;19.94;100.00;97726.50;107151;1276;22623;-82
2023/09/12 06:45:48;;;;;;;19.60;17.60;;;;;;;20.06;100.00;97727.65;107139;1276;25484;-83
2023/09/12 06:48:17;;;;;;;19.10;16.10;;;;;;;20.20;100.00;97726.95;107113;1276;24387;-83
2023/09/12 06:50:45;;;;;;;17.10;15.50;;;;;;;20.35;100.00;97725.70;107212;1276;22648;-82
2023/09/12 06:53:19;;;;;;;19.10;15.50;;;;;;;20.51;100.00;97723.29;107113;1276;22676;-82
2023/09/12 06:55:47;;;;;;;19.80;17.30;;;;;;;20.64;100.00;97726.70;107225;1276;25354;-83
2023/09/12 06:58:15;;;;;;;19.50;17.20;;;;;;;20.75;100.00;97732.17;107014;1276;24187;-83
2023/09/12 07:00:43;;;;;;;17.50;15.80;;;;;;;20.86;100.00;97733.18;107132;1263;22604;-82
2023/09/12 07:03:11;;;;;;;22.30;14.60;;;;;;;20.97;100.00;97733.41;107136;1276;25490;-81
2023/09/12 07:05:44;;;;;;;19.20;17.20;;;;;;;21.09;100.00;97737.33;107238;1270;25366;-81
2023/09/12 07:08:12;;;;;;;19.90;16.50;;;;;;;21.24;100.00;97737.90;107212;1276;22567;-83
2023/09/12 07:10:46;;;;;;;17.30;13.40;;;;;;;21.35;100.00;97739.54;107136;1276;24529;-82
2023/09/12 07:13:14;;;;;;;17.80;15.90;;;;;;;21.43;100.00;97740.27;107024;1276;22528;-81
2023/09/12 07:15:42;;;;;;;17.80;15.90;;;;;;;21.50;100.00;97740.20;107186;1276;24244;-81
2023/09/12 07:18:10;;;;;;;15.30;14.00;;;;;;;21.60;100.00;97741.80;107144;1276;22531;-82
2023/09/12 07:20:38;;;;;;;19.80;13.90;;;;;;;21.67;100.00;97745.64;107158;1276;22538;-82
2023/09/12 07:23:07;;;;;;;19.10;14.00;;;;;;;21.76;100.00;97741.17;107188;1276;24080;-81
2023/09/12 07:25:41;;;;;;;16.80;13.20;;;;;;;21.88;100.00;97739.58;107178;1276;25395;-80
2023/09/12 07:28:10;;;;;;;13.70;12.00;;;;;;;21.97;100.00;97735.34;106605;1276;22628;-81
2023/09/12 07:30:39;;;;;;;15.10;13.70;;;;;;;22.04;100.00;97735.18;107023;1276;25400;-81
2023/09/12 07:33:07;;;;;;;14.30;12.50;;;;;;;22.14;100.00;97735.05;107113;1276;22654;-81
2023/09/12 07:35:35;;;;;;;15.70;13.30;;;;;;;22.25;100.00;97737.52;107006;1276;22592;-81
2023/09/12 07:38:03;;;;;;;15.90;14.30;;;;;;;22.37;100.00;97740.27;106964;1276;25299;-81
2023/09/12 07:40:31;;;;;;;14.30;12.60;;;;;;;22.47;100.00;97740.80;106987;1276;26618;-81
2023/09/12 07:42:59;;;;;;;15.70;12.20;;;;;;;22.56;100.00;97740.71;106992;1276;22644;-81
2023/09/12 07:45:29;;;;;;;17.60;13.10;;;;;;;22.66;100.00;97742.59;106998;1276;22683;-82
2023/09/12 07:47:57;;;;;;;16.40;12.80;;;;;;;22.75;100.00;97742.64;107078;1276;25360;-82
2023/09/12 07:50:25;;;;;;;15.30;11.70;;;;;;;22.84;100.00;97739.79;107231;1276;22531;-82
2023/09/12 07:52:53;;;;;;;15.80;12.80;;;;;;;22.94;100.00;97738.59;107033;1276;22544;-80
2023/09/12 07:55:24;;;;;;;13.20;12.00;;;;;;;22.97;100.00;97742.09;107251;1276;22790;-82
2023/09/12 07:57:52;;;;;;;15.80;12.60;;;;;;;23.04;100.00;97741.27;107144;1276;25342;-80
2023/09/12 08:00:21;;;;;;;15.70;13.40;;;;;;;23.11;100.00;97741.61;106991;1276;22534;-81
2023/09/12 08:02:50;;;;;;;17.00;12.10;;;;;;;23.22;100.00;97742.91;107102;1276;22571;-81
2023/09/12 08:05:19;;;;;;;15.00;12.10;;;;;;;23.35;100.00;97744.15;107102;1276;22646;-81
2023/09/12 08:07:47;;;;;;;17.70;12.50;;;;;;;23.50;100.00;97738.70;107119;1276;25481;-82
2023/09/12 08:10:15;;;;;;;13.60;12.10;;;;;;;23.62;100.00;97741.80;107114;1276;25297;-81
2023/09/12 08:12:43;;;;;;;14.00;12.20;;;;;;;23.74;100.00;97742.64;107045;1276;22640;-81
2023/09/12 08:15:11;;;;;;;14.10;11.20;;;;;;;23.81;100.00;97742.35;107077;1276;22564;-81
2023/09/12 08:17:39;;;;;;;13.60;11.90;;;;;;;23.91;100.00;97738.02;107096;1276;22547;-81
2023/09/12 08:20:11;;;;;;;12.20;11.00;;;;;;;24.07;100.00;97741.12;107217;1275;24289;-81
2023/09/12 08:22:40;;;;;;;13.70;11.20;;;;;;;24.19;100.00;97740.90;107111;1276;22529;-80
2023/09/12 08:25:09;;;;;;;11.90;10.60;;;;;;;24.26;99.28;97740.81;106782;1276;22557;-80
2023/09/12 08:27:38;;;;;;;12.30;11.10;;;;;;;24.35;99.56;97738.77;106826;1276;24328;-80
2023/09/12 08:30:06;;;;;;;11.80;10.60;;;;;;;24.46;98.53;97735.87;106806;1276;22637;-81
2023/09/12 08:32:35;;;;;;;12.20;10.90;;;;;;;24.58;97.76;97735.00;107131;1276;22593;-81
2023/09/12 08:35:03;;;;;;;12.30;11.10;;;;;;;24.68;97.31;97736.95;107086;1276;26606;-81
2023/09/12 08:37:32;;;;;;;13.90;10.80;;;;;;;24.78;95.51;97739.22;107107;1276;22519;-80
2023/09/12 08:40:01;;;;;;;12.50;9.70;;;;;;;24.90;95.65;97735.81;106783;1276;23274;-80
2023/09/12 08:42:31;;;;;;;16.20;11.90;;;;;;;25.02;94.70;97733.89;107087;1276;22532;-80
2023/09/12 08:45:02;;;;;;;12.40;10.50;;;;;;;25.12;91.66;97735.52;107171;1276;22607;-80
2023/09/12 08:47:34;;;;;;;11.40;10.20;;;;;;;25.18;91.46;97736.06;106660;1276;25227;-80
2023/09/12 08:50:04;;;;;;;14.30;11.10;;;;;;;25.29;92.37;97733.58;106982;1276;22491;-80
2023/09/12 08:52:32;;;;;;;11.20;10.10;;;;;;;25.39;90.78;97737.33;107119;1272;22535;-80
2023/09/12 08:55:01;;;;;;;16.20;10.40;;;;;;;25.47;90.68;97736.10;107068;1276;25475;-80
2023/09/12 08:57:32;;;;;;;11.90;10.70;;;;;;;25.60;90.27;97733.27;107113;1276;22534;-80
2023/09/12 09:00:06;;;;;;;11.10;9.70;;;;;;;25.75;89.14;97733.66;107084;1266;24253;-80
2023/09/12 09:02:38;;;;;;;12.00;9.60;;;;;;;25.83;86.50;97733.48;107085;1276;22528;-80
2023/09/12 09:05:11;;;;;;;14.40;9.90;;;;;;;25.91;86.04;97730.29;107045;1276;25293;-80
2023/09/12 09:07:41;;;;;;;10.30;9.00;;;;;;;26.01;85.62;97728.87;107094;1276;24371;-80
2023/09/12 09:10:23;;;;;;;18.00;9.80;;;;;;;26.16;84.10;97729.95;107067;1276;25332;-81
2023/09/12 09:13:12;;;;;;;11.10;8.60;;;;;;;26.34;84.41;97734.05;107004;1276;22610;-80
2023/09/12 09:15:43;;;;;;;10.00;8.90;;;;;;;26.46;83.43;97731.83;107142;1276;23353;-81
2023/09/12 09:18:12;;;;;;;9.70;8.00;;;;;;;26.54;80.46;97733.20;107007;1256;22567;-81
2023/09/12 09:20:41;;;;;;;14.00;9.20;;;;;;;26.60;80.22;97731.33;106826;1276;25412;-81
2023/09/12 09:23:10;;;;;;;11.40;8.60;;;;;;;26.67;79.15;97730.07;107090;1275;22527;-81
2023/09/12 09:25:42;;;;;;;10.20;8.30;;;;;;;26.73;78.83;97730.48;107194;1276;22638;-80
2023/09/12 09:28:20;;;;;;;15.00;8.20;;;;;;;26.83;78.34;97731.10;107146;1276;25335;-80
2023/09/12 09:30:52;;;;;;;12.60;8.60;;;;;;;26.89;77.14;97725.26;107146;1276;22643;-80
2023/09/12 09:33:21;;;;;;;14.60;8.10;;;;;;;26.98;74.96;97728.56;107094;1276;22544;-81
2023/09/12 09:35:49;;;;;;;9.10;7.70;;;;;;;27.09;76.10;97726.87;107044;1276;22761;-80
2023/09/12 09:38:20;;;;;;;8.40;7.60;;;;;;;27.18;72.62;97722.11;107010;1276;22486;-81
2023/09/12 09:40:50;;;;;;;7.90;6.80;;;;;;;27.25;73.91;97721.88;107020;1276;23407;-81
2023/09/12 09:43:22;;;;;;;10.60;7.50;;;;;;;27.33;72.04;97718.85;107123;1269;22539;-81
2023/09/12 09:45:50;;;;;;;10.70;6.70;;;;;;;27.40;70.39;97715.75;107126;1276;22606;-81
2023/09/12 09:48:24;;;;;;;11.10;7.20;;;;;;;27.53;69.82;97720.88;107149;1276;24441;-81
2023/09/12 09:50:53;;;;;;;;;;;;;;;27.65;69.98;97721.59;107075;1276;24356;-81
2023/09/12 09:53:26;;;;;;;12.60;7.40;;;;;;;27.79;70.46;97717.29;107195;1276;22591;-81
2023/09/12 09:56:07;;;;;;;;;;;;;;;27.93;70.31;97716.86;107271;1276;23216;-81
2023/09/12 09:58:35;;;;;;;10.50;8.10;;;;;;;28.02;68.94;97721.48;107298;1259;23887;-80
2023/09/12 10:01:08;;;;;;;17.60;9.70;;;;;;;28.10;68.51;97721.66;107764;1276;24253;-81
2023/09/12 10:03:37;;;;;;;12.70;8.40;;;;;;;28.19;65.10;97720.50;107527;1276;25337;-80
2023/09/12 10:06:08;;;;;;;11.20;8.80;;;;;;;28.13;63.07;97722.40;107187;1276;25485;-80
2023/09/12 10:08:40;;;;;;;11.00;8.80;;;;;;;28.14;64.90;97721.77;107219;1276;22680;-80
2023/09/12 10:11:09;;;;;;;9.50;7.70;;;;;;;28.17;61.73;97725.19;107207;1276;25226;-80
2023/09/12 10:13:42;;;;;;;12.10;8.80;;;;;;;28.11;62.72;97724.40;106796;1275;22710;-79
2023/09/12 10:16:11;;;;;;;11.80;8.10;;;;;;;28.11;62.16;97721.34;106778;1276;22535;-80
2023/09/12 10:18:49;;;;;;;13.60;8.40;;;;;;;28.11;62.92;97717.77;107136;1276;22642;-80
2023/09/12 10:21:24;;;;;;;11.10;8.00;;;;;;;28.21;63.43;97715.23;107051;1276;24265;-80
2023/09/12 10:23:55;;;;;;;12.00;8.80;;;;;;;28.35;62.82;97717.14;106836;1276;26747;-81
2023/09/12 10:26:24;;;;;;;14.80;8.50;;;;;;;28.48;62.72;97717.90;106808;1259;24189;-81
2023/09/12 10:28:55;;;;;;;19.00;11.80;;;;;;;28.58;59.58;97719.32;106892;1276;22669;-81
2023/09/12 10:31:24;;;;;;;9.60;7.90;;;;;;;28.48;59.24;97719.70;107153;1276;23493;-81
2023/09/12 10:33:53;;;;;;;10.40;6.50;;;;;;;28.46;58.95;97717.21;107179;1270;22634;-81
2023/09/12 10:36:25;;;;;;;8.70;6.10;;;;;;;28.33;56.55;97718.11;107101;1276;22613;-80
2023/09/12 10:38:55;;;;;;;7.40;6.40;;;;;;;28.27;57.70;97716.23;107126;1276;24220;-81
2023/09/12 10:41:24;;;;;;;9.00;6.70;;;;;;;28.33;56.31;97713.92;107141;1276;22633;-80
2023/09/12 10:43:53;;;;;;;9.60;7.10;;;;;;;28.41;56.25;97716.64;107139;1276;24196;-80
2023/09/12 10:46:22;;;;;;;11.70;6.70;;;;;;;28.34;55.04;97713.66;107117;1276;22712;-81
2023/09/12 10:48:51;;;;;;;10.70;6.60;;;;;;;28.39;56.19;97709.55;107053;1276;22650;-81
2023/09/12 10:51:20;;;;;;;11.00;6.90;;;;;;;28.51;55.34;97707.61;106842;1276;22495;-81
2023/09/12 10:53:49;;;;;;;9.00;6.70;;;;;;;28.66;56.56;97706.65;107150;1276;24125;-80
2023/09/12 10:56:21;;;;;;;8.80;6.60;;;;;;;28.82;55.93;97711.25;106781;1276;22522;-80
2023/09/12 10:59:06;;;;;;;14.50;7.00;;;;;;;28.94;55.72;97706.45;107067;1276;24221;-82
2023/09/12 11:01:35;;;;;;;8.00;6.70;;;;;;;28.99;56.31;97701.90;107110;1276;22534;-82
2023/09/12 11:04:30;;;;;;;10.40;7.40;;;;;;;29.06;55.27;97703.45;107188;1276;23276;-81
2023/09/12 11:06:58;;;;;;;9.60;6.40;;;;;;;29.14;55.00;97699.08;106825;1276;22952;-81
2023/09/12 11:09:27;;;;;;;9.70;6.80;;;;;;;29.27;54.87;97707.30;107184;1276;22737;-80
2023/09/12 11:12:02;;;;;;;10.60;6.50;;;;;;;29.22;53.13;97708.84;106850;1276;22556;-81
2023/09/12 11:14:31;;;;;;;9.70;6.60;;;;;;;29.12;52.41;97713.33;107135;1276;24542;-80
2023/09/12 11:17:06;;;;;;;10.50;6.70;;;;;;;29.07;52.75;97714.77;107136;1275;24199;-80
2023/09/12 11:19:49;;;;;;;15.10;6.70;;;;;;;29.11;52.57;97712.55;107147;1276;23132;-81
2023/09/12 11:22:31;;;;;;;7.90;6.60;;;;;;;29.18;52.99;97710.91;107149;1276;22544;-81
2023/09/12 11:25:05;;;;;;;9.50;6.40;;;;;;;29.29;52.11;97709.83;107213;1276;22549;-81
2023/09/12 11:27:50;;;;;;;10.20;7.00;;;;;;;29.41;53.60;97704.71;107166;1276;23399;-81
2023/09/12 11:30:19;;;;;;;9.90;6.90;;;;;;;29.72;53.64;97701.91;107079;1276;22625;-81
2023/09/12 11:32:53;;;;;;;9.40;6.50;;;;;;;29.87;52.24;97698.86;107187;1276;22530;-81